Time;durP1;ratioP1;P1;durP2;ratioP2;P2;SDS_P1;SDS_P2;PMS_P1;PMS_P2;Temp;Humidity;BMP_temperature;BMP_pressure;BME280_temperature;BME280_humidity;BME280_pressure;Samples;Min_cycle;Max_cycle;Signal;HPM_P1;HPM_P2
2019/07/30 00:00:04;;;;;;;24.7;21.15;;;;;;;18.1;100;94994.94;;;;
2019/07/30 00:01:06;;;;;;;24.7;21.15;;;;;;;18.1;100;94994.94;;;;
2019/07/30 00:02:07;;;;;;;24.7;21.15;;;;;;;18.1;100;94994.94;;;;
2019/07/30 00:03:08;;;;;;;24.7;21.15;;;;;;;18.1;100;94994.94;;;;
2019/07/30 00:04:10;;;;;;;24.7;21.15;;;;;;;18.1;100;94994.94;;;;
2019/07/30 00:05:11;;;;;;;24.7;21.15;;;;;;;18.1;100;94994.94;;;;
2019/07/30 00:06:13;;;;;;;29.1;23.65;;;;;;;18.11;100;94997.53;;;;
2019/07/30 00:07:14;;;;;;;29.1;23.65;;;;;;;18.11;100;94997.53;;;;
2019/07/30 00:08:15;;;;;;;29.1;23.65;;;;;;;18.11;100;94997.53;;;;
2019/07/30 00:09:17;;;;;;;29.1;23.65;;;;;;;18.11;100;94997.53;;;;
2019/07/30 00:10:18;;;;;;;29.1;23.65;;;;;;;18.11;100;94997.53;;;;
2019/07/30 00:11:27;;;;;;;29.1;23.65;;;;;;;18.11;100;94997.53;;;;
2019/07/30 00:12:28;;;;;;;29.1;23.65;;;;;;;18.11;100;94997.53;;;;
2019/07/30 00:13:30;;;;;;;29.1;23.65;;;;;;;18.11;100;94997.53;;;;
2019/07/30 00:14:31;;;;;;;29.1;23.65;;;;;;;18.11;100;94997.53;;;;
2019/07/30 00:15:32;;;;;;;29.1;23.65;;;;;;;18.11;100;94997.53;;;;
2019/07/30 00:16:33;;;;;;;25;21.9;;;;;;;18.06;100;95007;;;;
2019/07/30 00:17:34;;;;;;;25;21.9;;;;;;;18.06;100;95007;;;;
2019/07/30 00:18:35;;;;;;;25;21.9;;;;;;;18.06;100;95007;;;;
2019/07/30 00:19:37;;;;;;;25;21.9;;;;;;;18.06;100;95007;;;;
2019/07/30 00:20:38;;;;;;;25;21.9;;;;;;;18.06;100;95007;;;;
2019/07/30 00:21:39;;;;;;;25;21.9;;;;;;;18.06;100;95007;;;;
2019/07/30 00:22:40;;;;;;;25;21.9;;;;;;;18.06;100;95007;;;;
2019/07/30 00:23:41;;;;;;;25;21.9;;;;;;;18.06;100;95007;;;;
2019/07/30 00:24:42;;;;;;;25;21.9;;;;;;;18.06;100;95007;;;;
2019/07/30 00:25:44;;;;;;;25;21.9;;;;;;;18.06;100;95007;;;;
2019/07/30 00:26:45;;;;;;;25;21.9;;;;;;;18.06;100;95007;;;;
2019/07/30 00:27:47;;;;;;;24.4;21;;;;;;;18.09;100;94998.78;;;;
2019/07/30 00:28:48;;;;;;;24.4;21;;;;;;;18.09;100;94998.78;;;;
2019/07/30 00:29:49;;;;;;;24.4;21;;;;;;;18.09;100;94998.78;;;;
2019/07/30 00:30:50;;;;;;;24.4;21;;;;;;;18.09;100;94998.78;;;;
2019/07/30 00:31:51;;;;;;;24.4;21;;;;;;;18.09;100;94998.78;;;;
2019/07/30 00:32:52;;;;;;;24.4;21;;;;;;;18.09;100;94998.78;;;;
2019/07/30 00:33:53;;;;;;;24.4;21;;;;;;;18.09;100;94998.78;;;;
2019/07/30 00:34:54;;;;;;;24.4;21;;;;;;;18.09;100;94998.78;;;;
2019/07/30 00:35:55;;;;;;;24.4;21;;;;;;;18.09;100;94998.78;;;;
2019/07/30 00:36:56;;;;;;;24.4;21;;;;;;;18.09;100;94998.78;;;;
2019/07/30 00:37:57;;;;;;;22.5;19.6;;;;;;;18.04;100;94994.33;;;;
2019/07/30 00:38:58;;;;;;;22.5;19.6;;;;;;;18.04;100;94994.33;;;;
2019/07/30 00:40:00;;;;;;;22.5;19.6;;;;;;;18.04;100;94994.33;;;;
2019/07/30 00:41:01;;;;;;;22.5;19.6;;;;;;;18.04;100;94994.33;;;;
2019/07/30 00:42:02;;;;;;;22.5;19.6;;;;;;;18.04;100;94994.33;;;;
2019/07/30 00:43:03;;;;;;;22.5;19.6;;;;;;;18.04;100;94994.33;;;;
2019/07/30 00:44:04;;;;;;;22.5;19.6;;;;;;;18.04;100;94994.33;;;;
2019/07/30 00:45:05;;;;;;;22.5;19.6;;;;;;;18.04;100;94994.33;;;;
2019/07/30 00:46:08;;;;;;;22.5;19.6;;;;;;;18.04;100;94994.33;;;;
2019/07/30 00:47:11;;;;;;;22.5;19.6;;;;;;;18.04;100;94994.33;;;;
2019/07/30 00:48:12;;;;;;;20.9;18.75;;;;;;;17.92;100;94991.56;;;;
2019/07/30 00:49:13;;;;;;;20.9;18.75;;;;;;;17.92;100;94991.56;;;;
2019/07/30 00:50:14;;;;;;;20.9;18.75;;;;;;;17.92;100;94991.56;;;;
2019/07/30 00:51:15;;;;;;;20.9;18.75;;;;;;;17.92;100;94991.56;;;;
2019/07/30 00:52:16;;;;;;;20.9;18.75;;;;;;;17.92;100;94991.56;;;;
2019/07/30 00:53:17;;;;;;;20.9;18.75;;;;;;;17.92;100;94991.56;;;;
2019/07/30 00:54:19;;;;;;;20.9;18.75;;;;;;;17.92;100;94991.56;;;;
2019/07/30 00:55:20;;;;;;;20.9;18.75;;;;;;;17.92;100;94991.56;;;;
2019/07/30 00:56:21;;;;;;;20.9;18.75;;;;;;;17.92;100;94991.56;;;;
2019/07/30 00:57:23;;;;;;;20.9;18.75;;;;;;;17.92;100;94991.56;;;;
2019/07/30 00:58:24;;;;;;;20.9;18.75;;;;;;;17.92;100;94991.56;;;;
2019/07/30 00:59:25;;;;;;;20.5;17.85;;;;;;;17.55;100;94991.25;;;;
2019/07/30 01:00:26;;;;;;;20.5;17.85;;;;;;;17.55;100;94991.25;;;;
2019/07/30 01:01:42;;;;;;;20.5;17.85;;;;;;;17.55;100;94991.25;;;;
2019/07/30 01:02:43;;;;;;;20.5;17.85;;;;;;;17.55;100;94991.25;;;;
2019/07/30 01:03:44;;;;;;;20.5;17.85;;;;;;;17.55;100;94991.25;;;;
2019/07/30 01:04:46;;;;;;;20.5;17.85;;;;;;;17.55;100;94991.25;;;;
2019/07/30 01:05:47;;;;;;;20.5;17.85;;;;;;;17.55;100;94991.25;;;;
2019/07/30 01:06:48;;;;;;;20.5;17.85;;;;;;;17.55;100;94991.25;;;;
2019/07/30 01:07:49;;;;;;;20.5;17.85;;;;;;;17.55;100;94991.25;;;;
2019/07/30 01:08:50;;;;;;;20.5;17.85;;;;;;;17.55;100;94991.25;;;;
2019/07/30 01:09:51;;;;;;;22.45;19.9;;;;;;;17.19;100;94994.92;;;;
2019/07/30 01:10:52;;;;;;;22.45;19.9;;;;;;;17.19;100;94994.92;;;;
2019/07/30 01:11:54;;;;;;;22.45;19.9;;;;;;;17.19;100;94994.92;;;;
2019/07/30 01:12:55;;;;;;;22.45;19.9;;;;;;;17.19;100;94994.92;;;;
2019/07/30 01:13:56;;;;;;;22.45;19.9;;;;;;;17.19;100;94994.92;;;;
2019/07/30 01:14:58;;;;;;;22.45;19.9;;;;;;;17.19;100;94994.92;;;;
2019/07/30 01:15:59;;;;;;;22.45;19.9;;;;;;;17.19;100;94994.92;;;;
2019/07/30 01:17:00;;;;;;;22.45;19.9;;;;;;;17.19;100;94994.92;;;;
2019/07/30 01:18:02;;;;;;;22.45;19.9;;;;;;;17.19;100;94994.92;;;;
2019/07/30 01:19:03;;;;;;;22.45;19.9;;;;;;;17.19;100;94994.92;;;;
2019/07/30 01:20:04;;;;;;;22.65;19.85;;;;;;;16.84;100;94990.49;;;;
2019/07/30 01:21:06;;;;;;;22.65;19.85;;;;;;;16.84;100;94990.49;;;;
2019/07/30 01:22:07;;;;;;;22.65;19.85;;;;;;;16.84;100;94990.49;;;;
2019/07/30 01:23:08;;;;;;;22.65;19.85;;;;;;;16.84;100;94990.49;;;;
2019/07/30 01:24:10;;;;;;;22.65;19.85;;;;;;;16.84;100;94990.49;;;;
2019/07/30 01:25:11;;;;;;;22.65;19.85;;;;;;;16.84;100;94990.49;;;;
2019/07/30 01:26:12;;;;;;;22.65;19.85;;;;;;;16.84;100;94990.49;;;;
2019/07/30 01:27:14;;;;;;;22.65;19.85;;;;;;;16.84;100;94990.49;;;;
2019/07/30 01:28:15;;;;;;;22.65;19.85;;;;;;;16.84;100;94990.49;;;;
2019/07/30 01:30:19;;;;;;;22.65;19.85;;;;;;;16.84;100;94990.49;;;;
2019/07/30 01:31:22;;;;;;;22.95;20.05;;;;;;;16.6;100;94987.2;;;;
2019/07/30 01:32:23;;;;;;;22.95;20.05;;;;;;;16.6;100;94987.2;;;;
2019/07/30 01:33:24;;;;;;;22.95;20.05;;;;;;;16.6;100;94987.2;;;;
2019/07/30 01:34:25;;;;;;;22.95;20.05;;;;;;;16.6;100;94987.2;;;;
2019/07/30 01:35:26;;;;;;;22.95;20.05;;;;;;;16.6;100;94987.2;;;;
2019/07/30 01:36:27;;;;;;;22.95;20.05;;;;;;;16.6;100;94987.2;;;;
2019/07/30 01:37:29;;;;;;;22.95;20.05;;;;;;;16.6;100;94987.2;;;;
2019/07/30 01:38:30;;;;;;;22.95;20.05;;;;;;;16.6;100;94987.2;;;;
2019/07/30 01:39:31;;;;;;;22.95;20.05;;;;;;;16.6;100;94987.2;;;;
2019/07/30 01:40:32;;;;;;;22.95;20.05;;;;;;;16.6;100;94987.2;;;;
2019/07/30 01:41:34;;;;;;;26.05;21.9;;;;;;;16.38;100;94982.67;;;;
2019/07/30 01:42:35;;;;;;;26.05;21.9;;;;;;;16.38;100;94982.67;;;;
2019/07/30 01:43:36;;;;;;;26.05;21.9;;;;;;;16.38;100;94982.67;;;;
2019/07/30 01:44:38;;;;;;;26.05;21.9;;;;;;;16.38;100;94982.67;;;;
2019/07/30 01:45:39;;;;;;;26.05;21.9;;;;;;;16.38;100;94982.67;;;;
2019/07/30 01:46:46;;;;;;;26.05;21.9;;;;;;;16.38;100;94982.67;;;;
2019/07/30 01:47:47;;;;;;;26.05;21.9;;;;;;;16.38;100;94982.67;;;;
2019/07/30 01:48:48;;;;;;;26.05;21.9;;;;;;;16.38;100;94982.67;;;;
2019/07/30 01:49:49;;;;;;;26.05;21.9;;;;;;;16.38;100;94982.67;;;;
2019/07/30 01:50:51;;;;;;;26.05;21.9;;;;;;;16.38;100;94982.67;;;;
2019/07/30 01:51:52;;;;;;;26.8;23.15;;;;;;;16.26;100;94982.15;;;;
2019/07/30 01:52:53;;;;;;;26.8;23.15;;;;;;;16.26;100;94982.15;;;;
2019/07/30 01:53:54;;;;;;;26.8;23.15;;;;;;;16.26;100;94982.15;;;;
2019/07/30 01:54:55;;;;;;;26.8;23.15;;;;;;;16.26;100;94982.15;;;;
2019/07/30 01:55:56;;;;;;;26.8;23.15;;;;;;;16.26;100;94982.15;;;;
2019/07/30 01:56:58;;;;;;;26.8;23.15;;;;;;;16.26;100;94982.15;;;;
2019/07/30 01:57:59;;;;;;;26.8;23.15;;;;;;;16.26;100;94982.15;;;;
2019/07/30 01:59:00;;;;;;;26.8;23.15;;;;;;;16.26;100;94982.15;;;;
2019/07/30 02:00:01;;;;;;;26.8;23.15;;;;;;;16.26;100;94982.15;;;;
2019/07/30 02:01:03;;;;;;;26.8;23.15;;;;;;;16.26;100;94982.15;;;;
2019/07/30 02:02:06;;;;;;;26.8;23.15;;;;;;;16.26;100;94982.15;;;;
2019/07/30 02:03:07;;;;;;;28.35;23.4;;;;;;;16.07;100;94985.22;;;;
2019/07/30 02:04:08;;;;;;;28.35;23.4;;;;;;;16.07;100;94985.22;;;;
2019/07/30 02:05:09;;;;;;;28.35;23.4;;;;;;;16.07;100;94985.22;;;;
2019/07/30 02:06:11;;;;;;;28.35;23.4;;;;;;;16.07;100;94985.22;;;;
2019/07/30 02:07:12;;;;;;;28.35;23.4;;;;;;;16.07;100;94985.22;;;;
2019/07/30 02:08:14;;;;;;;28.35;23.4;;;;;;;16.07;100;94985.22;;;;
2019/07/30 02:09:15;;;;;;;28.35;23.4;;;;;;;16.07;100;94985.22;;;;
2019/07/30 02:10:16;;;;;;;28.35;23.4;;;;;;;16.07;100;94985.22;;;;
2019/07/30 02:11:17;;;;;;;28.35;23.4;;;;;;;16.07;100;94985.22;;;;
2019/07/30 02:12:18;;;;;;;28.35;23.4;;;;;;;16.07;100;94985.22;;;;
2019/07/30 02:13:20;;;;;;;32.45;24.75;;;;;;;15.91;100;94976.42;;;;
2019/07/30 02:14:21;;;;;;;32.45;24.75;;;;;;;15.91;100;94976.42;;;;
2019/07/30 02:15:22;;;;;;;32.45;24.75;;;;;;;15.91;100;94976.42;;;;
2019/07/30 02:16:24;;;;;;;32.45;24.75;;;;;;;15.91;100;94976.42;;;;
2019/07/30 02:17:25;;;;;;;32.45;24.75;;;;;;;15.91;100;94976.42;;;;
2019/07/30 02:18:26;;;;;;;32.45;24.75;;;;;;;15.91;100;94976.42;;;;
2019/07/30 02:19:28;;;;;;;32.45;24.75;;;;;;;15.91;100;94976.42;;;;
2019/07/30 02:20:29;;;;;;;32.45;24.75;;;;;;;15.91;100;94976.42;;;;
2019/07/30 02:21:30;;;;;;;32.45;24.75;;;;;;;15.91;100;94976.42;;;;
2019/07/30 02:22:31;;;;;;;32.45;24.75;;;;;;;15.91;100;94976.42;;;;
2019/07/30 02:23:32;;;;;;;31.95;25.2;;;;;;;15.72;100;94978.52;;;;
2019/07/30 02:24:33;;;;;;;31.95;25.2;;;;;;;15.72;100;94978.52;;;;
2019/07/30 02:25:35;;;;;;;31.95;25.2;;;;;;;15.72;100;94978.52;;;;
2019/07/30 02:26:36;;;;;;;31.95;25.2;;;;;;;15.72;100;94978.52;;;;
2019/07/30 02:27:37;;;;;;;31.95;25.2;;;;;;;15.72;100;94978.52;;;;
2019/07/30 02:28:39;;;;;;;31.95;25.2;;;;;;;15.72;100;94978.52;;;;
2019/07/30 02:29:40;;;;;;;31.95;25.2;;;;;;;15.72;100;94978.52;;;;
2019/07/30 02:30:41;;;;;;;31.95;25.2;;;;;;;15.72;100;94978.52;;;;
2019/07/30 02:31:42;;;;;;;31.95;25.2;;;;;;;15.72;100;94978.52;;;;
2019/07/30 02:32:43;;;;;;;31.95;25.2;;;;;;;15.72;100;94978.52;;;;
2019/07/30 02:33:45;;;;;;;31.95;25.2;;;;;;;15.72;100;94978.52;;;;
2019/07/30 02:34:46;;;;;;;39.9;28.8;;;;;;;15.63;100;94985.61;;;;
2019/07/30 02:35:47;;;;;;;39.9;28.8;;;;;;;15.63;100;94985.61;;;;
2019/07/30 02:36:48;;;;;;;39.9;28.8;;;;;;;15.63;100;94985.61;;;;
2019/07/30 02:37:50;;;;;;;39.9;28.8;;;;;;;15.63;100;94985.61;;;;
2019/07/30 02:38:51;;;;;;;39.9;28.8;;;;;;;15.63;100;94985.61;;;;
2019/07/30 02:39:52;;;;;;;39.9;28.8;;;;;;;15.63;100;94985.61;;;;
2019/07/30 02:40:53;;;;;;;39.9;28.8;;;;;;;15.63;100;94985.61;;;;
2019/07/30 02:41:55;;;;;;;39.9;28.8;;;;;;;15.63;100;94985.61;;;;
2019/07/30 02:42:56;;;;;;;39.9;28.8;;;;;;;15.63;100;94985.61;;;;
2019/07/30 02:43:57;;;;;;;39.9;28.8;;;;;;;15.63;100;94985.61;;;;
2019/07/30 02:44:58;;;;;;;38.45;27.7;;;;;;;15.54;100;94992.69;;;;
2019/07/30 02:45:59;;;;;;;38.45;27.7;;;;;;;15.54;100;94992.69;;;;
2019/07/30 02:47:00;;;;;;;38.45;27.7;;;;;;;15.54;100;94992.69;;;;
2019/07/30 02:48:02;;;;;;;38.45;27.7;;;;;;;15.54;100;94992.69;;;;
2019/07/30 02:49:03;;;;;;;38.45;27.7;;;;;;;15.54;100;94992.69;;;;
2019/07/30 02:50:04;;;;;;;38.45;27.7;;;;;;;15.54;100;94992.69;;;;
2019/07/30 02:51:06;;;;;;;38.45;27.7;;;;;;;15.54;100;94992.69;;;;
2019/07/30 02:52:08;;;;;;;38.45;27.7;;;;;;;15.54;100;94992.69;;;;
2019/07/30 02:53:09;;;;;;;38.45;27.7;;;;;;;15.54;100;94992.69;;;;
2019/07/30 02:54:10;;;;;;;38.45;27.7;;;;;;;15.54;100;94992.69;;;;
2019/07/30 02:55:11;;;;;;;38.45;27.7;;;;;;;15.54;100;94992.69;;;;
2019/07/30 02:56:12;;;;;;;38.7;28.4;;;;;;;15.48;100;94996.08;;;;
2019/07/30 02:57:14;;;;;;;38.7;28.4;;;;;;;15.48;100;94996.08;;;;
2019/07/30 02:58:15;;;;;;;38.7;28.4;;;;;;;15.48;100;94996.08;;;;
2019/07/30 02:59:16;;;;;;;38.7;28.4;;;;;;;15.48;100;94996.08;;;;
2019/07/30 03:00:17;;;;;;;38.7;28.4;;;;;;;15.48;100;94996.08;;;;
2019/07/30 03:01:34;;;;;;;38.7;28.4;;;;;;;15.48;100;94996.08;;;;
2019/07/30 03:02:35;;;;;;;38.7;28.4;;;;;;;15.48;100;94996.08;;;;
2019/07/30 03:03:36;;;;;;;38.7;28.4;;;;;;;15.48;100;94996.08;;;;
2019/07/30 03:04:37;;;;;;;38.7;28.4;;;;;;;15.48;100;94996.08;;;;
2019/07/30 03:05:38;;;;;;;38.7;28.4;;;;;;;15.48;100;94996.08;;;;
2019/07/30 03:06:39;;;;;;;33.85001;25.2;;;;;;;15.35;100;95000.14;;;;
2019/07/30 03:07:40;;;;;;;33.85001;25.2;;;;;;;15.35;100;95000.14;;;;
2019/07/30 03:08:42;;;;;;;33.85001;25.2;;;;;;;15.35;100;95000.14;;;;
2019/07/30 03:09:43;;;;;;;33.85001;25.2;;;;;;;15.35;100;95000.14;;;;
2019/07/30 03:10:44;;;;;;;33.85001;25.2;;;;;;;15.35;100;95000.14;;;;
2019/07/30 03:11:46;;;;;;;33.85001;25.2;;;;;;;15.35;100;95000.14;;;;
2019/07/30 03:12:47;;;;;;;33.85001;25.2;;;;;;;15.35;100;95000.14;;;;
2019/07/30 03:13:48;;;;;;;33.85001;25.2;;;;;;;15.35;100;95000.14;;;;
2019/07/30 03:14:49;;;;;;;33.85001;25.2;;;;;;;15.35;100;95000.14;;;;
2019/07/30 03:15:50;;;;;;;33.85001;25.2;;;;;;;15.35;100;95000.14;;;;
2019/07/30 03:16:52;;;;;;;40.2;28.75;;;;;;;15.25;100;95000.56;;;;
2019/07/30 03:17:53;;;;;;;40.2;28.75;;;;;;;15.25;100;95000.56;;;;
2019/07/30 03:18:54;;;;;;;40.2;28.75;;;;;;;15.25;100;95000.56;;;;
2019/07/30 03:19:55;;;;;;;40.2;28.75;;;;;;;15.25;100;95000.56;;;;
2019/07/30 03:20:57;;;;;;;40.2;28.75;;;;;;;15.25;100;95000.56;;;;
2019/07/30 03:21:58;;;;;;;40.2;28.75;;;;;;;15.25;100;95000.56;;;;
2019/07/30 03:22:59;;;;;;;40.2;28.75;;;;;;;15.25;100;95000.56;;;;
2019/07/30 03:24:00;;;;;;;40.2;28.75;;;;;;;15.25;100;95000.56;;;;
2019/07/30 03:25:01;;;;;;;40.2;28.75;;;;;;;15.25;100;95000.56;;;;
2019/07/30 03:26:03;;;;;;;40.2;28.75;;;;;;;15.25;100;95000.56;;;;
2019/07/30 03:27:04;;;;;;;40.2;28.75;;;;;;;15.25;100;95000.56;;;;
2019/07/30 03:28:05;;;;;;;39.7;27.65;;;;;;;15.13;100;95008.71;;;;
2019/07/30 03:29:06;;;;;;;39.7;27.65;;;;;;;15.13;100;95008.71;;;;
2019/07/30 03:30:07;;;;;;;39.7;27.65;;;;;;;15.13;100;95008.71;;;;
2019/07/30 03:31:09;;;;;;;39.7;27.65;;;;;;;15.13;100;95008.71;;;;
2019/07/30 03:32:10;;;;;;;39.7;27.65;;;;;;;15.13;100;95008.71;;;;
2019/07/30 03:33:11;;;;;;;39.7;27.65;;;;;;;15.13;100;95008.71;;;;
2019/07/30 03:34:14;;;;;;;39.7;27.65;;;;;;;15.13;100;95008.71;;;;
2019/07/30 03:35:15;;;;;;;39.7;27.65;;;;;;;15.13;100;95008.71;;;;
2019/07/30 03:36:16;;;;;;;39.7;27.65;;;;;;;15.13;100;95008.71;;;;
2019/07/30 03:37:17;;;;;;;39.7;27.65;;;;;;;15.13;100;95008.71;;;;
2019/07/30 03:38:18;;;;;;;40.80001;29.2;;;;;;;15.08;100;95015.48;;;;
2019/07/30 03:39:20;;;;;;;40.80001;29.2;;;;;;;15.08;100;95015.48;;;;
2019/07/30 03:40:21;;;;;;;40.80001;29.2;;;;;;;15.08;100;95015.48;;;;
2019/07/30 03:41:22;;;;;;;40.80001;29.2;;;;;;;15.08;100;95015.48;;;;
2019/07/30 03:42:23;;;;;;;40.80001;29.2;;;;;;;15.08;100;95015.48;;;;
2019/07/30 03:43:25;;;;;;;40.80001;29.2;;;;;;;15.08;100;95015.48;;;;
2019/07/30 03:44:26;;;;;;;40.80001;29.2;;;;;;;15.08;100;95015.48;;;;
2019/07/30 03:45:27;;;;;;;40.80001;29.2;;;;;;;15.08;100;95015.48;;;;
2019/07/30 03:46:28;;;;;;;40.80001;29.2;;;;;;;15.08;100;95015.48;;;;
2019/07/30 03:47:29;;;;;;;40.80001;29.2;;;;;;;15.08;100;95015.48;;;;
2019/07/30 03:48:30;;;;;;;47.4;30.8;;;;;;;14.98;100;95020.39;;;;
2019/07/30 03:49:31;;;;;;;47.4;30.8;;;;;;;14.98;100;95020.39;;;;
2019/07/30 03:50:32;;;;;;;47.4;30.8;;;;;;;14.98;100;95020.39;;;;
2019/07/30 03:51:43;;;;;;;47.4;30.8;;;;;;;14.98;100;95020.39;;;;
2019/07/30 03:52:45;;;;;;;47.4;30.8;;;;;;;14.98;100;95020.39;;;;
2019/07/30 03:53:46;;;;;;;47.4;30.8;;;;;;;14.98;100;95020.39;;;;
2019/07/30 03:54:47;;;;;;;47.4;30.8;;;;;;;14.98;100;95020.39;;;;
2019/07/30 03:55:48;;;;;;;47.4;30.8;;;;;;;14.98;100;95020.39;;;;
2019/07/30 03:56:50;;;;;;;47.4;30.8;;;;;;;14.98;100;95020.39;;;;
2019/07/30 03:57:51;;;;;;;47.4;30.8;;;;;;;14.98;100;95020.39;;;;
2019/07/30 03:58:52;;;;;;;47.4;30.8;;;;;;;14.98;100;95020.39;;;;
2019/07/30 03:59:53;;;;;;;42.55001;29.85;;;;;;;14.97;100;95027.84;;;;
2019/07/30 04:00:54;;;;;;;42.55001;29.85;;;;;;;14.97;100;95027.84;;;;
2019/07/30 04:01:56;;;;;;;42.55001;29.85;;;;;;;14.97;100;95027.84;;;;
2019/07/30 04:02:57;;;;;;;42.55001;29.85;;;;;;;14.97;100;95027.84;;;;
2019/07/30 04:03:58;;;;;;;42.55001;29.85;;;;;;;14.97;100;95027.84;;;;
2019/07/30 04:04:59;;;;;;;42.55001;29.85;;;;;;;14.97;100;95027.84;;;;
2019/07/30 04:06:00;;;;;;;42.55001;29.85;;;;;;;14.97;100;95027.84;;;;
2019/07/30 04:07:01;;;;;;;42.55001;29.85;;;;;;;14.97;100;95027.84;;;;
2019/07/30 04:08:03;;;;;;;42.55001;29.85;;;;;;;14.97;100;95027.84;;;;
2019/07/30 04:09:04;;;;;;;42.55001;29.85;;;;;;;14.97;100;95027.84;;;;
2019/07/30 04:10:05;;;;;;;39.4;28.5;;;;;;;14.95;100;95030.83;;;;
2019/07/30 04:11:07;;;;;;;39.4;28.5;;;;;;;14.95;100;95030.83;;;;
2019/07/30 04:12:08;;;;;;;39.4;28.5;;;;;;;14.95;100;95030.83;;;;
2019/07/30 04:13:09;;;;;;;39.4;28.5;;;;;;;14.95;100;95030.83;;;;
2019/07/30 04:14:11;;;;;;;39.4;28.5;;;;;;;14.95;100;95030.83;;;;
2019/07/30 04:15:12;;;;;;;39.4;28.5;;;;;;;14.95;100;95030.83;;;;
2019/07/30 04:16:13;;;;;;;39.4;28.5;;;;;;;14.95;100;95030.83;;;;
2019/07/30 04:17:16;;;;;;;39.4;28.5;;;;;;;14.95;100;95030.83;;;;
2019/07/30 04:18:17;;;;;;;39.4;28.5;;;;;;;14.95;100;95030.83;;;;
2019/07/30 04:19:18;;;;;;;39.4;28.5;;;;;;;14.95;100;95030.83;;;;
2019/07/30 04:20:19;;;;;;;36.84999;27.55;;;;;;;15.03;100;95037.23;;;;
2019/07/30 04:21:21;;;;;;;36.84999;27.55;;;;;;;15.03;100;95037.23;;;;
2019/07/30 04:22:22;;;;;;;36.84999;27.55;;;;;;;15.03;100;95037.23;;;;
2019/07/30 04:23:23;;;;;;;36.84999;27.55;;;;;;;15.03;100;95037.23;;;;
2019/07/30 04:24:24;;;;;;;36.84999;27.55;;;;;;;15.03;100;95037.23;;;;
2019/07/30 04:25:25;;;;;;;36.84999;27.55;;;;;;;15.03;100;95037.23;;;;
2019/07/30 04:26:26;;;;;;;36.84999;27.55;;;;;;;15.03;100;95037.23;;;;
2019/07/30 04:27:27;;;;;;;36.84999;27.55;;;;;;;15.03;100;95037.23;;;;
2019/07/30 04:28:29;;;;;;;36.84999;27.55;;;;;;;15.03;100;95037.23;;;;
2019/07/30 04:29:30;;;;;;;36.84999;27.55;;;;;;;15.03;100;95037.23;;;;
2019/07/30 04:30:31;;;;;;;36.84999;27.55;;;;;;;15.03;100;95037.23;;;;
2019/07/30 04:31:56;;;;;;;36.15001;26;;;;;;;15.06;100;95046.2;;;;
2019/07/30 04:32:57;;;;;;;36.15001;26;;;;;;;15.06;100;95046.2;;;;
2019/07/30 04:33:58;;;;;;;36.15001;26;;;;;;;15.06;100;95046.2;;;;
2019/07/30 04:34:59;;;;;;;36.15001;26;;;;;;;15.06;100;95046.2;;;;
2019/07/30 04:36:01;;;;;;;36.15001;26;;;;;;;15.06;100;95046.2;;;;
2019/07/30 04:37:02;;;;;;;36.15001;26;;;;;;;15.06;100;95046.2;;;;
2019/07/30 04:38:03;;;;;;;36.15001;26;;;;;;;15.06;100;95046.2;;;;
2019/07/30 04:39:04;;;;;;;36.15001;26;;;;;;;15.06;100;95046.2;;;;
2019/07/30 04:40:05;;;;;;;36.15001;26;;;;;;;15.06;100;95046.2;;;;
2019/07/30 04:41:08;;;;;;;36.15001;26;;;;;;;15.06;100;95046.2;;;;
2019/07/30 04:42:09;;;;;;;35.9;27.9;;;;;;;15.2;100;95050.44;;;;
2019/07/30 04:43:10;;;;;;;35.9;27.9;;;;;;;15.2;100;95050.44;;;;
2019/07/30 04:44:11;;;;;;;35.9;27.9;;;;;;;15.2;100;95050.44;;;;
2019/07/30 04:45:13;;;;;;;35.9;27.9;;;;;;;15.2;100;95050.44;;;;
2019/07/30 04:46:15;;;;;;;35.9;27.9;;;;;;;15.2;100;95050.44;;;;
2019/07/30 04:47:16;;;;;;;35.9;27.9;;;;;;;15.2;100;95050.44;;;;
2019/07/30 04:48:17;;;;;;;35.9;27.9;;;;;;;15.2;100;95050.44;;;;
2019/07/30 04:49:19;;;;;;;35.9;27.9;;;;;;;15.2;100;95050.44;;;;
2019/07/30 04:50:20;;;;;;;35.9;27.9;;;;;;;15.2;100;95050.44;;;;
2019/07/30 04:51:21;;;;;;;35.9;27.9;;;;;;;15.2;100;95050.44;;;;
2019/07/30 04:52:22;;;;;;;44.85;30.15;;;;;;;15.44;100;95052.55;;;;
2019/07/30 04:53:23;;;;;;;44.85;30.15;;;;;;;15.44;100;95052.55;;;;
2019/07/30 04:54:25;;;;;;;44.85;30.15;;;;;;;15.44;100;95052.55;;;;
2019/07/30 04:55:26;;;;;;;44.85;30.15;;;;;;;15.44;100;95052.55;;;;
2019/07/30 04:56:27;;;;;;;44.85;30.15;;;;;;;15.44;100;95052.55;;;;
2019/07/30 04:57:28;;;;;;;44.85;30.15;;;;;;;15.44;100;95052.55;;;;
2019/07/30 04:58:29;;;;;;;44.85;30.15;;;;;;;15.44;100;95052.55;;;;
2019/07/30 04:59:30;;;;;;;44.85;30.15;;;;;;;15.44;100;95052.55;;;;
2019/07/30 05:00:31;;;;;;;44.85;30.15;;;;;;;15.44;100;95052.55;;;;
2019/07/30 05:01:33;;;;;;;44.85;30.15;;;;;;;15.44;100;95052.55;;;;
2019/07/30 05:02:34;;;;;;;55.1;37.2;;;;;;;16.09;100;95060.26;;;;
2019/07/30 05:03:35;;;;;;;55.1;37.2;;;;;;;16.09;100;95060.26;;;;
2019/07/30 05:04:36;;;;;;;55.1;37.2;;;;;;;16.09;100;95060.26;;;;
2019/07/30 05:05:37;;;;;;;55.1;37.2;;;;;;;16.09;100;95060.26;;;;
2019/07/30 05:06:39;;;;;;;55.1;37.2;;;;;;;16.09;100;95060.26;;;;
2019/07/30 05:07:40;;;;;;;55.1;37.2;;;;;;;16.09;100;95060.26;;;;
2019/07/30 05:08:41;;;;;;;55.1;37.2;;;;;;;16.09;100;95060.26;;;;
2019/07/30 05:09:42;;;;;;;55.1;37.2;;;;;;;16.09;100;95060.26;;;;
2019/07/30 05:10:43;;;;;;;55.1;37.2;;;;;;;16.09;100;95060.26;;;;
2019/07/30 05:11:45;;;;;;;55.1;37.2;;;;;;;16.09;100;95060.26;;;;
2019/07/30 05:12:46;;;;;;;55.1;37.2;;;;;;;16.09;100;95060.26;;;;
2019/07/30 05:13:47;;;;;;;47.15;34.65;;;;;;;16.88;100;95066.16;;;;
2019/07/30 05:14:48;;;;;;;47.15;34.65;;;;;;;16.88;100;95066.16;;;;
2019/07/30 05:15:49;;;;;;;47.15;34.65;;;;;;;16.88;100;95066.16;;;;
2019/07/30 05:16:50;;;;;;;47.15;34.65;;;;;;;16.88;100;95066.16;;;;
2019/07/30 05:17:51;;;;;;;47.15;34.65;;;;;;;16.88;100;95066.16;;;;
2019/07/30 05:18:52;;;;;;;47.15;34.65;;;;;;;16.88;100;95066.16;;;;
2019/07/30 05:19:53;;;;;;;47.15;34.65;;;;;;;16.88;100;95066.16;;;;
2019/07/30 05:20:54;;;;;;;47.15;34.65;;;;;;;16.88;100;95066.16;;;;
2019/07/30 05:21:55;;;;;;;47.15;34.65;;;;;;;16.88;100;95066.16;;;;
2019/07/30 05:22:56;;;;;;;47.15;34.65;;;;;;;16.88;100;95066.16;;;;
2019/07/30 05:23:57;;;;;;;34.09999;26.15;;;;;;;17.56;100;95082.54;;;;
2019/07/30 05:24:59;;;;;;;34.09999;26.15;;;;;;;17.56;100;95082.54;;;;
2019/07/30 05:26:00;;;;;;;34.09999;26.15;;;;;;;17.56;100;95082.54;;;;
2019/07/30 05:27:01;;;;;;;34.09999;26.15;;;;;;;17.56;100;95082.54;;;;
2019/07/30 05:28:02;;;;;;;34.09999;26.15;;;;;;;17.56;100;95082.54;;;;
2019/07/30 05:29:03;;;;;;;34.09999;26.15;;;;;;;17.56;100;95082.54;;;;
2019/07/30 05:30:04;;;;;;;34.09999;26.15;;;;;;;17.56;100;95082.54;;;;
2019/07/30 05:31:06;;;;;;;34.09999;26.15;;;;;;;17.56;100;95082.54;;;;
2019/07/30 05:32:07;;;;;;;34.09999;26.15;;;;;;;17.56;100;95082.54;;;;
2019/07/30 05:33:08;;;;;;;34.09999;26.15;;;;;;;17.56;100;95082.54;;;;
2019/07/30 05:34:09;;;;;;;34.09999;26.15;;;;;;;17.56;100;95082.54;;;;
2019/07/30 05:35:10;;;;;;;31.8;24.45;;;;;;;18.11;100;95093.17;;;;
2019/07/30 05:36:12;;;;;;;31.8;24.45;;;;;;;18.11;100;95093.17;;;;
2019/07/30 05:37:13;;;;;;;31.8;24.45;;;;;;;18.11;100;95093.17;;;;
2019/07/30 05:38:14;;;;;;;31.8;24.45;;;;;;;18.11;100;95093.17;;;;
2019/07/30 05:39:16;;;;;;;31.8;24.45;;;;;;;18.11;100;95093.17;;;;
2019/07/30 05:40:17;;;;;;;31.8;24.45;;;;;;;18.11;100;95093.17;;;;
2019/07/30 05:41:18;;;;;;;31.8;24.45;;;;;;;18.11;100;95093.17;;;;
2019/07/30 05:42:20;;;;;;;31.8;24.45;;;;;;;18.11;100;95093.17;;;;
2019/07/30 05:43:21;;;;;;;31.8;24.45;;;;;;;18.11;100;95093.17;;;;
2019/07/30 05:44:22;;;;;;;31.8;24.45;;;;;;;18.11;100;95093.17;;;;
2019/07/30 05:45:23;;;;;;;25.15;20.55;;;;;;;18.56;100;95103.13;;;;
2019/07/30 05:46:24;;;;;;;25.15;20.55;;;;;;;18.56;100;95103.13;;;;
2019/07/30 05:47:26;;;;;;;25.15;20.55;;;;;;;18.56;100;95103.13;;;;
2019/07/30 05:48:27;;;;;;;25.15;20.55;;;;;;;18.56;100;95103.13;;;;
2019/07/30 05:49:29;;;;;;;25.15;20.55;;;;;;;18.56;100;95103.13;;;;
2019/07/30 05:50:30;;;;;;;25.15;20.55;;;;;;;18.56;100;95103.13;;;;
2019/07/30 05:51:31;;;;;;;25.15;20.55;;;;;;;18.56;100;95103.13;;;;
2019/07/30 05:52:32;;;;;;;25.15;20.55;;;;;;;18.56;100;95103.13;;;;
2019/07/30 05:53:33;;;;;;;25.15;20.55;;;;;;;18.56;100;95103.13;;;;
2019/07/30 05:54:34;;;;;;;25.15;20.55;;;;;;;18.56;100;95103.13;;;;
2019/07/30 05:55:35;;;;;;;25.15;20.55;;;;;;;18.56;100;95103.13;;;;
2019/07/30 05:56:36;;;;;;;25.8;21.7;;;;;;;18.87;100;95115.11;;;;
2019/07/30 05:57:37;;;;;;;25.8;21.7;;;;;;;18.87;100;95115.11;;;;
2019/07/30 05:58:38;;;;;;;25.8;21.7;;;;;;;18.87;100;95115.11;;;;
2019/07/30 05:59:39;;;;;;;25.8;21.7;;;;;;;18.87;100;95115.11;;;;
2019/07/30 06:00:40;;;;;;;25.8;21.7;;;;;;;18.87;100;95115.11;;;;
2019/07/30 06:01:45;;;;;;;25.8;21.7;;;;;;;18.87;100;95115.11;;;;
2019/07/30 06:02:46;;;;;;;25.8;21.7;;;;;;;18.87;100;95115.11;;;;
2019/07/30 06:03:47;;;;;;;25.8;21.7;;;;;;;18.87;100;95115.11;;;;
2019/07/30 06:04:48;;;;;;;25.8;21.7;;;;;;;18.87;100;95115.11;;;;
2019/07/30 06:05:49;;;;;;;25.8;21.7;;;;;;;18.87;100;95115.11;;;;
2019/07/30 06:06:50;;;;;;;22.25;19.85;;;;;;;19.15;100;95118.73;;;;
2019/07/30 06:07:52;;;;;;;22.25;19.85;;;;;;;19.15;100;95118.73;;;;